createdAt,value
2022-10-01T00:02:06.942Z,15.05
2022-10-01T00:04:37.337Z,16.38
2022-10-01T00:07:09.597Z,16.83
2022-10-01T00:09:38.743Z,15.03
2022-10-01T00:12:06.976Z,15.45
2022-10-01T00:14:35.815Z,18.55
2022-10-01T00:17:05.601Z,17.55
2022-10-01T00:19:33.836Z,16.65
2022-10-01T00:22:02.052Z,16.63
2022-10-01T00:24:30.551Z,16.67
2022-10-01T00:26:58.986Z,17.30
2022-10-01T00:29:27.159Z,17.48
2022-10-01T00:31:55.518Z,17.50
2022-10-01T00:34:25.347Z,17.42
2022-10-01T00:36:53.535Z,16.70
2022-10-01T00:39:22.123Z,19.63
2022-10-01T00:41:52.725Z,18.00
2022-10-01T00:44:31.893Z,16.38
2022-10-01T00:47:04.580Z,17.23
2022-10-01T00:49:35.973Z,18.70
2022-10-01T00:52:08.826Z,16.88
2022-10-01T00:54:40.764Z,15.82
2022-10-01T00:57:09.206Z,18.10
2022-10-01T00:59:38.237Z,17.08
2022-10-01T01:02:06.616Z,16.30
2022-10-01T01:04:36.404Z,17.08
2022-10-01T01:07:07.261Z,16.33
2022-10-01T01:09:36.880Z,17.52
2022-10-01T01:12:12.478Z,17.70
2022-10-01T01:14:47.573Z,18.48
2022-10-01T01:17:20.843Z,18.15
2022-10-01T01:22:24.752Z,17.27
2022-10-01T01:24:57.128Z,18.15
2022-10-01T01:27:32.749Z,19.98
2022-10-01T01:30:05.300Z,16.02
2022-10-01T01:32:39.583Z,18.08
2022-10-01T01:35:09.923Z,18.27
2022-10-01T01:37:40.876Z,18.00
2022-10-01T01:40:11.677Z,18.58
2022-10-01T01:42:43.204Z,17.95
2022-10-01T01:45:16.237Z,19.25
2022-10-01T01:47:45.414Z,19.05
2022-10-01T01:50:14.734Z,17.98
2022-10-01T01:52:43.009Z,18.92
2022-10-01T01:55:11.716Z,18.33
2022-10-01T01:57:42.485Z,19.83
2022-10-01T02:00:14.564Z,19.70
2022-10-01T02:02:46.676Z,19.77
2022-10-01T02:05:17.345Z,19.10
2022-10-01T02:07:57.303Z,20.92
2022-10-01T02:10:37.171Z,21.45
2022-10-01T02:13:16.102Z,19.38
2022-10-01T02:15:52.078Z,20.02
2022-10-01T02:18:27.085Z,19.67
2022-10-01T02:21:00.649Z,21.60
2022-10-01T02:23:31.422Z,22.17
2022-10-01T02:26:01.669Z,21.15
2022-10-01T02:28:30.353Z,21.60
2022-10-01T02:31:01.460Z,20.42
2022-10-01T02:33:32.319Z,21.20
2022-10-01T02:36:01.550Z,21.20
2022-10-01T02:38:30.144Z,22.13
2022-10-01T02:41:01.284Z,20.63
2022-10-01T02:43:32.727Z,22.63
2022-10-01T02:46:05.205Z,20.30
2022-10-01T02:48:33.540Z,19.60
2022-10-01T02:51:06.049Z,20.15
2022-10-01T02:53:38.964Z,19.50
2022-10-01T02:56:08.242Z,20.27
2022-10-01T02:58:36.476Z,18.65
2022-10-01T03:01:06.308Z,18.83
2022-10-01T03:03:34.693Z,20.42
2022-10-01T03:06:02.937Z,18.00
2022-10-01T03:08:31.666Z,19.15
2022-10-01T03:10:59.961Z,18.95
2022-10-01T03:13:28.109Z,19.17
2022-10-01T03:15:56.571Z,17.67
2022-10-01T03:18:26.421Z,16.02
2022-10-01T03:20:54.547Z,18.67
2022-10-01T03:23:22.836Z,17.20
2022-10-01T03:25:51.113Z,20.42
2022-10-01T03:28:19.262Z,20.55
2022-10-01T03:30:47.513Z,18.58
2022-10-01T03:33:15.783Z,17.88
2022-10-01T03:35:45.286Z,18.13
2022-10-01T03:38:13.879Z,19.10
2022-10-01T03:40:42.338Z,19.55
2022-10-01T03:43:10.489Z,17.40
2022-10-01T03:45:39.540Z,18.80
2022-10-01T03:48:08.099Z,16.95
2022-10-01T03:50:36.800Z,21.38
2022-10-01T03:53:07.262Z,16.42
2022-10-01T03:55:35.747Z,16.08
2022-10-01T03:58:03.963Z,19.10
2022-10-01T04:00:32.180Z,19.15
2022-10-01T04:03:00.580Z,18.38
2022-10-01T04:05:28.736Z,19.58
2022-10-01T04:07:56.983Z,18.02
2022-10-01T04:10:26.795Z,16.02
2022-10-01T04:12:55.685Z,19.42
2022-10-01T04:15:25.140Z,19.48
2022-10-01T04:17:53.504Z,18.00
2022-10-01T04:20:22.284Z,18.42
2022-10-01T04:22:50.573Z,19.17
2022-10-01T04:25:19.259Z,18.10
2022-10-01T04:27:58.345Z,20.05
2022-10-01T04:30:28.369Z,18.42
2022-10-01T04:32:56.593Z,17.30
2022-10-01T04:35:25.559Z,19.23
2022-10-01T04:37:58.570Z,18.38
2022-10-01T04:40:27.050Z,19.50
2022-10-01T04:42:56.640Z,18.30
2022-10-01T04:45:24.904Z,18.98
2022-10-01T04:47:54.102Z,18.45
2022-10-01T04:50:23.304Z,17.27
2022-10-01T04:52:51.936Z,18.27
2022-10-01T04:55:21.245Z,19.98
2022-10-01T04:57:50.042Z,19.30
2022-10-01T05:00:22.044Z,18.17
2022-10-01T05:02:51.419Z,19.48
2022-10-01T05:05:20.528Z,20.95
2022-10-01T05:07:49.278Z,19.40
2022-10-01T05:10:19.765Z,19.77
2022-10-01T05:12:48.614Z,17.92
2022-10-01T05:15:20.448Z,17.92
2022-10-01T05:17:49.223Z,16.13
2022-10-01T05:20:21.322Z,17.27
2022-10-01T05:22:50.210Z,21.23
2022-10-01T05:25:18.909Z,20.17
2022-10-01T05:27:47.233Z,15.85
2022-10-01T05:30:24.294Z,18.15
2022-10-01T05:32:58.307Z,18.88
2022-10-01T05:35:26.940Z,19.02
2022-10-01T05:37:56.595Z,18.38
2022-10-01T05:40:25.938Z,20.77
2022-10-01T05:42:54.553Z,17.38
2022-10-01T05:45:23.108Z,18.45
2022-10-01T05:47:59.516Z,16.40
2022-10-01T05:50:28.851Z,18.42
2022-10-01T05:52:57.190Z,18.58
2022-10-01T05:55:26.031Z,18.85
2022-10-01T05:57:58.507Z,19.52
2022-10-01T06:00:29.391Z,20.55
2022-10-01T06:03:01.331Z,17.52
2022-10-01T06:05:30.903Z,19.17
2022-10-01T06:07:59.138Z,19.52
2022-10-01T06:10:30.480Z,17.52
2022-10-01T06:13:01.905Z,20.17
2022-10-01T06:15:31.874Z,18.88
2022-10-01T06:18:04.656Z,19.13
2022-10-01T06:20:33.339Z,18.38
2022-10-01T06:23:02.121Z,17.65
2022-10-01T06:25:31.132Z,20.55
2022-10-01T06:28:01.310Z,16.63
2022-10-01T06:30:31.983Z,19.90
2022-10-01T06:33:02.923Z,16.88
2022-10-01T06:35:32.987Z,17.55
2022-10-01T06:38:02.662Z,19.90
2022-10-01T06:40:31.283Z,19.33
2022-10-01T06:42:59.812Z,17.60
2022-10-01T06:45:28.644Z,19.15
2022-10-01T06:47:57.461Z,19.25
2022-10-01T06:50:26.035Z,20.65
2022-10-01T06:52:56.091Z,18.65
2022-10-01T06:55:27.923Z,18.70
2022-10-01T06:57:57.014Z,18.35
2022-10-01T07:00:25.444Z,16.83
2022-10-01T07:02:54.326Z,18.35
2022-10-01T07:05:22.858Z,19.00
2022-10-01T07:07:51.090Z,15.77
2022-10-01T07:10:23.454Z,17.20
2022-10-01T07:12:52.023Z,17.60
2022-10-01T07:15:22.937Z,17.42
2022-10-01T07:17:52.360Z,17.63
2022-10-01T07:20:22.049Z,17.55
2022-10-01T07:22:50.906Z,16.85
2022-10-01T07:25:20.558Z,15.98
2022-10-01T07:27:49.012Z,18.30
2022-10-01T07:30:17.431Z,15.48
2022-10-01T07:32:46.071Z,16.85
2022-10-01T07:35:14.557Z,15.88
2022-10-01T07:37:42.950Z,16.38
2022-10-01T07:40:11.582Z,16.67
2022-10-01T07:42:41.367Z,14.75
2022-10-01T07:45:10.930Z,13.65
2022-10-01T07:47:39.085Z,13.60
2022-10-01T07:50:08.261Z,14.15
2022-10-01T07:52:36.613Z,15.23
2022-10-01T07:55:06.178Z,13.98
2022-10-01T07:57:35.196Z,14.73
2022-10-01T08:00:05.979Z,14.73
2022-10-01T08:02:35.584Z,14.05
2022-10-01T08:05:19.054Z,15.55
2022-10-01T08:07:49.641Z,15.27
2022-10-01T08:10:20.084Z,15.23
2022-10-01T08:12:48.296Z,16.58
2022-10-01T08:15:19.252Z,14.98
2022-10-01T08:17:47.544Z,14.10
2022-10-01T08:20:16.963Z,16.13
2022-10-01T08:22:45.320Z,17.15
2022-10-01T08:25:13.672Z,16.42
2022-10-01T08:27:41.875Z,14.85
2022-10-01T08:30:12.482Z,15.00
2022-10-01T08:32:42.111Z,16.70
2022-10-01T08:35:10.507Z,17.63
2022-10-01T08:37:39.185Z,17.85
2022-10-01T08:40:09.461Z,16.60
2022-10-01T08:42:45.971Z,20.45
2022-10-01T08:45:15.825Z,17.73
2022-10-01T08:47:49.531Z,15.52
2022-10-01T08:50:30.417Z,15.07
2022-10-01T08:53:01.092Z,15.77
2022-10-01T08:55:36.615Z,17.83
2022-10-01T08:58:06.677Z,18.15
2022-10-01T09:00:37.550Z,17.17
2022-10-01T09:03:09.147Z,17.85
2022-10-01T09:05:46.264Z,18.23
2022-10-01T09:08:22.144Z,19.25
2022-10-01T09:10:55.314Z,19.40
2022-10-01T09:16:02.025Z,14.73
2022-10-01T09:18:41.469Z,19.63
2022-10-01T09:21:16.746Z,18.20
2022-10-01T09:23:52.362Z,17.83
2022-10-01T09:26:25.531Z,16.80
2022-10-01T09:28:56.131Z,18.45
2022-10-01T09:31:28.586Z,16.80
2022-10-01T09:34:03.125Z,15.15
2022-10-01T09:36:37.763Z,14.75
2022-10-01T09:39:16.262Z,15.35
2022-10-01T09:41:46.578Z,14.48
2022-10-01T09:44:19.057Z,15.48
2022-10-01T09:46:47.803Z,14.90
2022-10-01T09:49:25.358Z,16.05
2022-10-01T09:51:56.671Z,15.95
2022-10-01T09:54:32.657Z,17.48
2022-10-01T09:57:06.167Z,16.98
2022-10-01T09:59:39.660Z,16.40
2022-10-01T10:02:17.826Z,15.40
2022-10-01T10:04:47.814Z,16.15
2022-10-01T10:07:19.191Z,16.17
2022-10-01T10:09:47.648Z,16.25
2022-10-01T10:12:29.642Z,17.65
2022-10-01T10:14:59.112Z,15.35
2022-10-01T10:17:27.459Z,16.55
2022-10-01T10:19:57.366Z,16.95
2022-10-01T10:22:27.012Z,15.40
2022-10-01T10:24:55.997Z,15.07
2022-10-01T10:27:27.756Z,18.58
2022-10-01T10:30:08.820Z,16.48
2022-10-01T10:32:37.575Z,18.45
2022-10-01T10:35:13.395Z,18.73
2022-10-01T10:37:47.028Z,19.00
2022-10-01T10:40:20.347Z,18.83
2022-10-01T10:42:50.922Z,19.42
2022-10-01T10:45:22.818Z,21.52
2022-10-01T10:47:53.175Z,20.13
2022-10-01T10:50:41.170Z,19.65
2022-10-01T10:53:24.429Z,24.30
2022-10-01T10:55:58.376Z,23.33
2022-10-01T10:58:27.729Z,25.65
2022-10-01T11:00:58.520Z,21.08
2022-10-01T11:03:29.646Z,23.25
2022-10-01T11:06:03.870Z,21.40
2022-10-01T11:08:32.507Z,23.15
2022-10-01T11:11:11.126Z,21.83
2022-10-01T11:13:51.323Z,21.20
2022-10-01T11:16:34.339Z,21.27
2022-10-01T11:19:26.975Z,20.73
2022-10-01T11:22:06.268Z,19.42
2022-10-01T11:24:52.817Z,20.42
2022-10-01T11:27:27.389Z,22.92
2022-10-01T11:30:01.972Z,20.23
2022-10-01T11:32:35.808Z,21.67
2022-10-01T11:35:45.806Z,20.35
2022-10-01T11:38:41.463Z,20.75
2022-10-01T11:41:17.048Z,20.48
2022-10-01T11:43:47.266Z,21.40
2022-10-01T11:46:18.178Z,20.17
2022-10-01T11:48:48.659Z,20.73
2022-10-01T11:51:19.649Z,21.05
2022-10-01T11:53:52.253Z,20.67
2022-10-01T11:56:40.215Z,21.02
2022-10-01T11:59:11.953Z,20.73
2022-10-01T12:01:42.991Z,21.70
2022-10-01T12:04:24.753Z,19.20
2022-10-01T12:06:56.450Z,20.60
2022-10-01T12:09:32.545Z,19.95
2022-10-01T12:12:03.223Z,21.88
2022-10-01T12:14:35.321Z,20.55
2022-10-01T12:17:12.319Z,21.58
2022-10-01T12:19:43.529Z,20.77
2022-10-01T12:22:15.585Z,19.98
2022-10-01T12:24:46.474Z,22.05
2022-10-01T12:27:37.251Z,19.55
2022-10-01T12:30:09.934Z,21.52
2022-10-01T12:32:48.407Z,22.10
2022-10-01T12:35:35.770Z,21.75
2022-10-01T12:38:14.793Z,20.67
2022-10-01T12:40:48.148Z,20.35
2022-10-01T12:43:37.398Z,20.15
2022-10-01T12:46:12.413Z,18.67
2022-10-01T12:48:44.940Z,20.38
2022-10-01T12:51:26.120Z,19.85
2022-10-01T12:54:01.947Z,20.40
2022-10-01T12:56:36.051Z,19.83
2022-10-01T12:59:21.311Z,19.92
2022-10-01T13:02:01.297Z,18.50
2022-10-01T13:04:44.802Z,20.30
2022-10-01T13:09:55.926Z,20.98
2022-10-01T13:12:42.347Z,22.13
2022-10-01T13:15:21.853Z,21.85
2022-10-01T13:17:52.877Z,21.63
2022-10-01T13:20:26.729Z,24.20
2022-10-01T13:23:00.703Z,28.73
2022-10-01T13:25:32.468Z,29.63
2022-10-01T13:28:06.850Z,26.77
2022-10-01T13:30:45.866Z,18.73
2022-10-01T13:33:23.569Z,15.80
2022-10-01T13:35:59.697Z,19.05
2022-10-01T13:38:30.565Z,18.45
2022-10-01T13:41:01.631Z,21.02
2022-10-01T13:43:32.415Z,21.23
2022-10-01T13:46:07.848Z,21.30
2022-10-01T13:48:37.276Z,21.70
2022-10-01T13:51:09.359Z,20.27
2022-10-01T13:53:39.488Z,20.08
2022-10-01T13:56:07.908Z,19.55
2022-10-01T13:58:40.571Z,20.00
2022-10-01T14:01:31.731Z,21.30
2022-10-01T14:04:05.928Z,19.27
2022-10-01T14:06:42.493Z,18.33
2022-10-01T14:09:18.395Z,20.50
2022-10-01T14:12:07.698Z,18.80
2022-10-01T14:14:56.536Z,17.85
2022-10-01T14:17:27.249Z,19.92
2022-10-01T14:19:55.637Z,17.75
2022-10-01T14:22:48.173Z,18.00
2022-10-01T14:25:29.927Z,18.40
2022-10-01T14:28:13.287Z,17.80
2022-10-01T14:30:48.179Z,18.90
2022-10-01T14:33:27.603Z,18.88
2022-10-01T14:35:59.982Z,18.83
2022-10-01T14:38:28.371Z,19.27
2022-10-01T14:40:57.127Z,19.40
2022-10-01T14:43:27.404Z,18.38
2022-10-01T14:45:59.064Z,18.73
2022-10-01T14:48:28.330Z,18.80
2022-10-01T14:51:01.415Z,19.83
2022-10-01T14:56:00.696Z,18.35
2022-10-01T14:58:31.790Z,20.52
2022-10-01T15:01:02.123Z,18.70
2022-10-01T15:03:37.660Z,19.90
2022-10-01T15:06:12.281Z,19.50
2022-10-01T15:08:42.266Z,17.60
2022-10-01T15:11:14.214Z,20.15
2022-10-01T15:13:44.523Z,18.98
2022-10-01T15:16:16.642Z,19.40
2022-10-01T15:18:47.955Z,18.00
2022-10-01T15:21:19.221Z,17.33
2022-10-01T15:23:48.314Z,21.63
2022-10-01T15:26:21.617Z,17.45
2022-10-01T15:28:50.080Z,18.98
2022-10-01T15:31:20.223Z,20.00
2022-10-01T15:33:48.551Z,21.58
2022-10-01T15:36:18.688Z,33.42
2022-10-01T15:38:48.057Z,31.42
2022-10-01T15:41:31.537Z,22.75
2022-10-01T15:44:04.216Z,33.53
2022-10-01T15:46:35.943Z,29.30
2022-10-01T15:49:19.413Z,31.93
2022-10-01T15:52:11.788Z,28.35
2022-10-01T15:54:41.810Z,28.52
2022-10-01T15:57:11.289Z,29.38
2022-10-01T15:59:41.789Z,33.05
2022-10-01T16:02:18.895Z,23.63
2022-10-01T16:04:47.606Z,30.98
2022-10-01T16:07:21.484Z,30.73
2022-10-01T16:09:53.938Z,30.35
2022-10-01T16:12:23.421Z,30.13
2022-10-01T16:15:01.752Z,28.15
2022-10-01T16:17:35.648Z,28.55
2022-10-01T16:20:38.954Z,30.58
2022-10-01T16:23:35.799Z,30.45
2022-10-01T16:26:04.930Z,29.33
2022-10-01T16:28:34.687Z,28.35
2022-10-01T16:31:03.617Z,28.73
2022-10-01T16:33:31.807Z,27.45
2022-10-01T16:36:11.489Z,26.00
2022-10-01T16:38:39.726Z,26.70
2022-10-01T16:41:07.961Z,27.02
2022-10-01T16:43:36.215Z,28.42
2022-10-01T16:46:04.891Z,29.60
2022-10-01T16:48:33.137Z,25.50
2022-10-01T16:51:01.456Z,29.50
2022-10-01T16:53:31.032Z,26.13
2022-10-01T16:55:59.256Z,28.77
2022-10-01T16:58:27.921Z,28.38
2022-10-01T17:00:56.195Z,25.77
2022-10-01T17:03:24.590Z,27.23
2022-10-01T17:05:52.965Z,26.20
2022-10-01T17:08:21.212Z,24.42
2022-10-01T17:10:57.056Z,25.02
2022-10-01T17:13:26.187Z,24.33
2022-10-01T17:15:54.820Z,19.38
2022-10-01T17:18:23.913Z,21.45
2022-10-01T17:20:52.180Z,20.80
2022-10-01T17:23:22.349Z,20.60
2022-10-01T17:25:52.264Z,21.05
2022-10-01T17:28:21.808Z,20.45
2022-10-01T17:30:50.672Z,18.38
2022-10-01T17:33:20.400Z,17.08
2022-10-01T17:35:51.977Z,16.48
2022-10-01T17:38:21.255Z,19.92
2022-10-01T17:40:56.335Z,16.38
2022-10-01T17:43:25.485Z,16.08
2022-10-01T17:45:57.210Z,15.38
2022-10-01T17:48:26.769Z,13.98
2022-10-01T17:51:03.592Z,15.05
2022-10-01T17:53:38.253Z,13.65
2022-10-01T17:56:14.644Z,13.68
2022-10-01T17:58:45.563Z,12.23
2022-10-01T18:01:16.129Z,13.27
2022-10-01T18:03:44.786Z,13.20
2022-10-01T18:06:15.491Z,12.05
2022-10-01T18:08:55.172Z,14.63
2022-10-01T18:11:26.585Z,12.23
2022-10-01T18:13:54.837Z,12.55
2022-10-01T18:16:23.406Z,13.07
2022-10-01T18:21:44.882Z,11.60
2022-10-01T18:24:13.243Z,12.63
2022-10-01T18:26:43.011Z,13.65
2022-10-01T18:29:12.051Z,12.75
2022-10-01T18:31:44.983Z,11.88
2022-10-01T18:34:18.827Z,13.00
2022-10-01T18:36:53.685Z,12.23
2022-10-01T18:39:28.069Z,12.75
2022-10-01T18:41:58.337Z,11.43
2022-10-01T18:44:27.171Z,13.40
2022-10-01T18:47:07.371Z,11.18
2022-10-01T18:50:00.275Z,11.02
2022-10-01T18:52:36.866Z,11.80
2022-10-01T18:55:21.722Z,12.82
2022-10-01T18:58:13.854Z,11.85
2022-10-01T19:00:48.064Z,11.68
2022-10-01T19:03:38.516Z,12.80
2022-10-01T19:06:24.452Z,12.75
2022-10-01T19:09:13.511Z,12.43
2022-10-01T19:11:46.853Z,13.45
2022-10-01T19:14:43.464Z,12.63
2022-10-01T19:17:25.528Z,12.40
2022-10-01T19:20:05.701Z,13.05
2022-10-01T19:22:42.341Z,12.43
2022-10-01T19:25:20.003Z,11.70
2022-10-01T19:27:59.825Z,12.68
2022-10-01T19:30:33.157Z,12.63
2022-10-01T19:35:33.851Z,11.82
2022-10-01T19:38:05.597Z,12.98
2022-10-01T19:40:38.455Z,13.88
2022-10-01T19:43:10.789Z,16.52
2022-10-01T19:45:49.009Z,13.67
2022-10-01T19:48:22.204Z,13.68
2022-10-01T19:53:25.746Z,14.32
2022-10-01T19:55:55.342Z,13.32
2022-10-01T19:58:24.273Z,12.38
2022-10-01T20:00:56.338Z,10.68
2022-10-01T20:03:39.328Z,11.05
2022-10-01T20:06:11.401Z,12.02
2022-10-01T20:08:44.492Z,11.18
2022-10-01T20:11:15.485Z,10.02
2022-10-01T20:13:53.919Z,8.95
2022-10-01T20:16:27.805Z,8.07
2022-10-01T20:19:05.193Z,7.20
2022-10-01T20:21:43.387Z,6.68
2022-10-01T20:24:21.214Z,6.15
2022-10-01T20:26:52.278Z,5.85
2022-10-01T20:29:36.890Z,6.40
2022-10-01T20:32:13.616Z,6.10
2022-10-01T20:34:50.018Z,5.82
2022-10-01T20:37:35.178Z,5.47
2022-10-01T20:40:07.107Z,4.68
2022-10-01T20:42:40.455Z,4.20
2022-10-01T20:47:46.987Z,4.88
2022-10-01T20:50:20.765Z,5.03
2022-10-01T20:52:53.898Z,4.82
2022-10-01T20:55:28.915Z,5.28
2022-10-01T20:58:00.219Z,5.28
2022-10-01T21:00:29.541Z,5.65
2022-10-01T21:03:06.155Z,4.85
2022-10-01T21:05:36.721Z,7.00
2022-10-01T21:08:08.798Z,6.60
2022-10-01T21:10:42.633Z,5.78
2022-10-01T21:13:16.543Z,5.63
2022-10-01T21:15:54.100Z,6.13
2022-10-01T21:18:32.222Z,7.65
2022-10-01T21:21:10.721Z,8.02
2022-10-01T21:23:46.465Z,6.05
2022-10-01T21:26:24.475Z,6.13
2022-10-01T21:29:19.502Z,5.90
2022-10-01T21:31:55.461Z,6.00
2022-10-01T21:34:30.573Z,5.53
2022-10-01T21:37:05.921Z,5.68
2022-10-01T21:39:35.319Z,5.65
2022-10-01T21:42:14.776Z,6.28
2022-10-01T21:45:06.796Z,5.13
2022-10-01T21:47:46.643Z,5.07
2022-10-01T21:50:23.163Z,6.15
2022-10-01T21:53:19.982Z,6.95
2022-10-01T21:56:06.717Z,5.85
2022-10-01T21:58:44.196Z,6.15
2022-10-01T22:01:22.067Z,6.85
2022-10-01T22:03:53.328Z,6.47
2022-10-01T22:06:29.617Z,6.30
2022-10-01T22:09:04.004Z,6.45
2022-10-01T22:11:37.050Z,6.50
2022-10-01T22:14:12.720Z,6.45
2022-10-01T22:16:44.836Z,6.72
2022-10-01T22:19:15.298Z,6.47
2022-10-01T22:21:47.181Z,7.13
2022-10-01T22:24:17.651Z,6.07
2022-10-01T22:26:48.744Z,6.57
2022-10-01T22:29:20.396Z,6.28
2022-10-01T22:31:50.959Z,6.97
2022-10-01T22:34:23.257Z,6.70
2022-10-01T22:36:57.244Z,6.20
2022-10-01T22:39:26.667Z,6.70
2022-10-01T22:41:59.356Z,5.60
2022-10-01T22:44:29.248Z,6.25
2022-10-01T22:47:19.343Z,6.35
2022-10-01T22:50:00.432Z,6.22
2022-10-01T22:52:35.122Z,6.13
2022-10-01T22:55:11.475Z,6.25
2022-10-01T22:58:17.542Z,6.85
2022-10-01T23:00:52.437Z,6.28
2022-10-01T23:03:33.215Z,5.63
2022-10-01T23:06:06.011Z,5.28
2022-10-01T23:08:43.287Z,5.40
2022-10-01T23:11:17.919Z,5.63
2022-10-01T23:13:56.768Z,5.18
2022-10-01T23:16:32.342Z,4.82
2022-10-01T23:19:11.518Z,6.57
2022-10-01T23:21:47.205Z,5.60
2022-10-01T23:24:27.109Z,5.07
2022-10-01T23:27:03.670Z,5.75
2022-10-01T23:29:50.662Z,5.22
2022-10-01T23:32:28.688Z,5.03
2022-10-01T23:35:02.836Z,4.75
2022-10-01T23:37:50.083Z,5.53
2022-10-01T23:40:22.966Z,5.07
2022-10-01T23:42:56.881Z,4.80
2022-10-01T23:45:30.198Z,4.63
2022-10-01T23:50:42.133Z,5.03
2022-10-01T23:53:15.063Z,4.38
2022-10-01T23:56:07.578Z,4.45
2022-10-01T23:58:43.662Z,4.93
